sensor_id;sensor_type;location;lat;lon;timestamp;P1;durP1;ratioP1;P2;durP2;ratioP2
14143;SDS011;7152;48.348;10.980;2022-12-18T00:00:42;56.07;;;25.87;;
14143;SDS011;7152;48.348;10.980;2022-12-18T00:03:09;52.43;;;24.80;;
14143;SDS011;7152;48.348;10.980;2022-12-18T00:05:35;53.20;;;26.27;;
14143;SDS011;7152;48.348;10.980;2022-12-18T00:08:01;51.13;;;27.27;;
14143;SDS011;7152;48.348;10.980;2022-12-18T00:10:27;48.40;;;25.03;;
14143;SDS011;7152;48.348;10.980;2022-12-18T00:12:53;50.70;;;24.33;;
14143;SDS011;7152;48.348;10.980;2022-12-18T00:15:19;47.70;;;24.53;;
14143;SDS011;7152;48.348;10.980;2022-12-18T00:17:45;54.93;;;26.20;;
14143;SDS011;7152;48.348;10.980;2022-12-18T00:20:10;46.27;;;23.47;;
14143;SDS011;7152;48.348;10.980;2022-12-18T00:22:36;47.60;;;24.00;;
14143;SDS011;7152;48.348;10.980;2022-12-18T00:25:02;45.93;;;23.70;;
14143;SDS011;7152;48.348;10.980;2022-12-18T00:27:28;50.40;;;24.87;;
14143;SDS011;7152;48.348;10.980;2022-12-18T00:29:53;48.57;;;23.00;;
14143;SDS011;7152;48.348;10.980;2022-12-18T00:32:19;49.70;;;23.73;;
14143;SDS011;7152;48.348;10.980;2022-12-18T00:34:45;45.03;;;23.10;;
14143;SDS011;7152;48.348;10.980;2022-12-18T00:37:10;47.83;;;24.23;;
14143;SDS011;7152;48.348;10.980;2022-12-18T00:39:36;52.57;;;24.23;;
14143;SDS011;7152;48.348;10.980;2022-12-18T00:42:01;55.63;;;25.33;;
14143;SDS011;7152;48.348;10.980;2022-12-18T00:44:46;44.07;;;23.03;;
14143;SDS011;7152;48.348;10.980;2022-12-18T00:47:11;49.60;;;24.50;;
14143;SDS011;7152;48.348;10.980;2022-12-18T00:49:37;51.77;;;24.97;;
14143;SDS011;7152;48.348;10.980;2022-12-18T00:52:03;49.80;;;23.90;;
14143;SDS011;7152;48.348;10.980;2022-12-18T00:54:28;49.17;;;22.90;;
14143;SDS011;7152;48.348;10.980;2022-12-18T00:56:54;44.40;;;21.60;;
14143;SDS011;7152;48.348;10.980;2022-12-18T00:59:20;45.73;;;22.73;;
14143;SDS011;7152;48.348;10.980;2022-12-18T01:01:46;47.27;;;23.00;;
14143;SDS011;7152;48.348;10.980;2022-12-18T01:04:11;50.50;;;23.53;;
14143;SDS011;7152;48.348;10.980;2022-12-18T01:06:37;46.10;;;23.97;;
14143;SDS011;7152;48.348;10.980;2022-12-18T01:09:03;47.77;;;23.17;;
14143;SDS011;7152;48.348;10.980;2022-12-18T01:11:28;52.80;;;23.87;;
14143;SDS011;7152;48.348;10.980;2022-12-18T01:13:54;46.10;;;23.20;;
14143;SDS011;7152;48.348;10.980;2022-12-18T01:16:20;53.20;;;22.77;;
14143;SDS011;7152;48.348;10.980;2022-12-18T01:18:46;50.23;;;23.57;;
14143;SDS011;7152;48.348;10.980;2022-12-18T01:21:13;53.20;;;24.37;;
14143;SDS011;7152;48.348;10.980;2022-12-18T01:23:40;49.43;;;24.00;;
14143;SDS011;7152;48.348;10.980;2022-12-18T01:26:11;57.70;;;25.03;;
14143;SDS011;7152;48.348;10.980;2022-12-18T01:28:41;52.90;;;25.10;;
14143;SDS011;7152;48.348;10.980;2022-12-18T01:33:38;48.90;;;24.67;;
14143;SDS011;7152;48.348;10.980;2022-12-18T01:36:04;54.97;;;22.97;;
14143;SDS011;7152;48.348;10.980;2022-12-18T01:38:29;44.73;;;20.63;;
14143;SDS011;7152;48.348;10.980;2022-12-18T01:40:58;48.37;;;22.83;;
14143;SDS011;7152;48.348;10.980;2022-12-18T01:46:26;53.93;;;22.17;;
14143;SDS011;7152;48.348;10.980;2022-12-18T01:48:54;54.63;;;24.37;;
14143;SDS011;7152;48.348;10.980;2022-12-18T01:51:22;55.27;;;23.43;;
14143;SDS011;7152;48.348;10.980;2022-12-18T01:53:48;56.83;;;23.87;;
14143;SDS011;7152;48.348;10.980;2022-12-18T01:56:15;51.33;;;24.13;;
14143;SDS011;7152;48.348;10.980;2022-12-18T01:59:03;53.70;;;23.07;;
14143;SDS011;7152;48.348;10.980;2022-12-18T02:01:30;48.20;;;22.07;;
14143;SDS011;7152;48.348;10.980;2022-12-18T02:04:13;49.27;;;21.87;;
14143;SDS011;7152;48.348;10.980;2022-12-18T02:06:46;45.07;;;21.00;;
14143;SDS011;7152;48.348;10.980;2022-12-18T02:09:20;54.80;;;22.63;;
14143;SDS011;7152;48.348;10.980;2022-12-18T02:12:40;52.00;;;22.57;;
14143;SDS011;7152;48.348;10.980;2022-12-18T02:17:20;51.40;;;22.37;;
14143;SDS011;7152;48.348;10.980;2022-12-18T02:22:44;57.27;;;21.43;;
14143;SDS011;7152;48.348;10.980;2022-12-18T02:27:51;46.47;;;23.17;;
14143;SDS011;7152;48.348;10.980;2022-12-18T02:30:19;55.87;;;21.83;;
14143;SDS011;7152;48.348;10.980;2022-12-18T02:32:46;44.07;;;21.53;;
14143;SDS011;7152;48.348;10.980;2022-12-18T02:35:25;47.73;;;21.27;;
14143;SDS011;7152;48.348;10.980;2022-12-18T02:37:54;48.33;;;22.13;;
14143;SDS011;7152;48.348;10.980;2022-12-18T02:40:20;44.60;;;21.07;;
14143;SDS011;7152;48.348;10.980;2022-12-18T02:42:49;48.93;;;21.63;;
14143;SDS011;7152;48.348;10.980;2022-12-18T02:45:15;49.63;;;22.90;;
14143;SDS011;7152;48.348;10.980;2022-12-18T02:47:42;51.63;;;21.57;;
14143;SDS011;7152;48.348;10.980;2022-12-18T02:58:10;49.50;;;20.83;;
14143;SDS011;7152;48.348;10.980;2022-12-18T03:03:23;46.03;;;20.13;;
14143;SDS011;7152;48.348;10.980;2022-12-18T03:06:11;44.40;;;21.47;;
14143;SDS011;7152;48.348;10.980;2022-12-18T03:08:51;34.60;;;17.77;;
14143;SDS011;7152;48.348;10.980;2022-12-18T03:11:22;41.47;;;18.97;;
14143;SDS011;7152;48.348;10.980;2022-12-18T03:14:10;40.83;;;18.23;;
14143;SDS011;7152;48.348;10.980;2022-12-18T03:16:37;37.17;;;17.07;;
14143;SDS011;7152;48.348;10.980;2022-12-18T03:19:08;42.40;;;19.47;;
14143;SDS011;7152;48.348;10.980;2022-12-18T03:21:45;45.63;;;18.13;;
14143;SDS011;7152;48.348;10.980;2022-12-18T03:24:14;41.60;;;17.37;;
14143;SDS011;7152;48.348;10.980;2022-12-18T03:26:42;42.87;;;17.40;;
14143;SDS011;7152;48.348;10.980;2022-12-18T03:29:12;41.33;;;17.47;;
14143;SDS011;7152;48.348;10.980;2022-12-18T03:31:54;35.67;;;16.70;;
14143;SDS011;7152;48.348;10.980;2022-12-18T03:34:30;37.30;;;17.23;;
14143;SDS011;7152;48.348;10.980;2022-12-18T03:36:58;34.70;;;17.03;;
14143;SDS011;7152;48.348;10.980;2022-12-18T03:39:27;36.30;;;16.47;;
14143;SDS011;7152;48.348;10.980;2022-12-18T03:52:52;42.77;;;18.40;;
14143;SDS011;7152;48.348;10.980;2022-12-18T03:55:21;35.43;;;16.60;;
14143;SDS011;7152;48.348;10.980;2022-12-18T03:57:50;40.43;;;17.00;;
14143;SDS011;7152;48.348;10.980;2022-12-18T04:00:17;35.70;;;16.57;;
14143;SDS011;7152;48.348;10.980;2022-12-18T04:02:44;36.60;;;16.37;;
14143;SDS011;7152;48.348;10.980;2022-12-18T04:05:15;40.50;;;19.33;;
14143;SDS011;7152;48.348;10.980;2022-12-18T04:07:42;37.27;;;17.30;;
14143;SDS011;7152;48.348;10.980;2022-12-18T04:10:10;37.27;;;17.13;;
14143;SDS011;7152;48.348;10.980;2022-12-18T04:12:37;35.30;;;16.53;;
14143;SDS011;7152;48.348;10.980;2022-12-18T04:15:03;39.30;;;18.33;;
14143;SDS011;7152;48.348;10.980;2022-12-18T04:17:29;42.77;;;19.60;;
14143;SDS011;7152;48.348;10.980;2022-12-18T04:19:55;44.27;;;18.50;;
14143;SDS011;7152;48.348;10.980;2022-12-18T04:22:21;40.83;;;19.57;;
14143;SDS011;7152;48.348;10.980;2022-12-18T04:24:46;45.10;;;18.83;;
14143;SDS011;7152;48.348;10.980;2022-12-18T04:27:12;39.17;;;17.93;;
14143;SDS011;7152;48.348;10.980;2022-12-18T04:29:38;45.30;;;20.17;;
14143;SDS011;7152;48.348;10.980;2022-12-18T04:32:04;40.23;;;20.50;;
14143;SDS011;7152;48.348;10.980;2022-12-18T04:34:30;44.03;;;18.83;;
14143;SDS011;7152;48.348;10.980;2022-12-18T04:36:56;44.63;;;19.83;;
14143;SDS011;7152;48.348;10.980;2022-12-18T04:39:21;47.27;;;21.63;;
14143;SDS011;7152;48.348;10.980;2022-12-18T04:41:47;42.73;;;20.20;;
14143;SDS011;7152;48.348;10.980;2022-12-18T04:44:13;44.90;;;20.73;;
14143;SDS011;7152;48.348;10.980;2022-12-18T04:46:39;46.73;;;20.70;;
14143;SDS011;7152;48.348;10.980;2022-12-18T04:49:04;43.30;;;19.20;;
14143;SDS011;7152;48.348;10.980;2022-12-18T04:51:30;42.63;;;19.60;;
14143;SDS011;7152;48.348;10.980;2022-12-18T04:53:55;44.60;;;19.63;;
14143;SDS011;7152;48.348;10.980;2022-12-18T04:56:21;38.70;;;20.40;;
14143;SDS011;7152;48.348;10.980;2022-12-18T04:58:47;46.53;;;20.50;;
14143;SDS011;7152;48.348;10.980;2022-12-18T05:01:14;43.30;;;18.93;;
14143;SDS011;7152;48.348;10.980;2022-12-18T05:03:41;47.47;;;19.87;;
14143;SDS011;7152;48.348;10.980;2022-12-18T05:06:07;41.80;;;19.87;;
14143;SDS011;7152;48.348;10.980;2022-12-18T05:08:33;45.07;;;20.20;;
14143;SDS011;7152;48.348;10.980;2022-12-18T05:10:59;45.03;;;19.97;;
14143;SDS011;7152;48.348;10.980;2022-12-18T05:13:27;46.77;;;19.87;;
14143;SDS011;7152;48.348;10.980;2022-12-18T05:15:53;42.87;;;20.37;;
14143;SDS011;7152;48.348;10.980;2022-12-18T05:18:19;38.93;;;19.73;;
14143;SDS011;7152;48.348;10.980;2022-12-18T05:20:45;41.93;;;18.33;;
14143;SDS011;7152;48.348;10.980;2022-12-18T05:23:10;40.20;;;19.80;;
14143;SDS011;7152;48.348;10.980;2022-12-18T05:25:36;42.70;;;18.50;;
14143;SDS011;7152;48.348;10.980;2022-12-18T05:28:02;34.67;;;15.97;;
14143;SDS011;7152;48.348;10.980;2022-12-18T05:30:28;46.13;;;19.57;;
14143;SDS011;7152;48.348;10.980;2022-12-18T05:32:53;40.40;;;18.90;;
14143;SDS011;7152;48.348;10.980;2022-12-18T05:35:19;38.20;;;18.30;;
14143;SDS011;7152;48.348;10.980;2022-12-18T05:37:45;37.17;;;18.47;;
14143;SDS011;7152;48.348;10.980;2022-12-18T05:40:10;39.97;;;19.07;;
14143;SDS011;7152;48.348;10.980;2022-12-18T05:42:36;41.30;;;19.40;;
14143;SDS011;7152;48.348;10.980;2022-12-18T05:45:02;43.23;;;20.23;;
14143;SDS011;7152;48.348;10.980;2022-12-18T05:47:28;44.40;;;19.93;;
14143;SDS011;7152;48.348;10.980;2022-12-18T05:49:54;42.07;;;17.50;;
14143;SDS011;7152;48.348;10.980;2022-12-18T05:52:20;43.27;;;18.80;;
14143;SDS011;7152;48.348;10.980;2022-12-18T05:54:46;39.53;;;18.00;;
14143;SDS011;7152;48.348;10.980;2022-12-18T05:57:11;41.43;;;18.87;;
14143;SDS011;7152;48.348;10.980;2022-12-18T05:59:37;39.63;;;18.00;;
14143;SDS011;7152;48.348;10.980;2022-12-18T06:02:03;39.23;;;18.57;;
14143;SDS011;7152;48.348;10.980;2022-12-18T06:04:28;34.50;;;16.67;;
14143;SDS011;7152;48.348;10.980;2022-12-18T06:06:57;38.53;;;18.57;;
14143;SDS011;7152;48.348;10.980;2022-12-18T06:09:23;44.80;;;19.97;;
14143;SDS011;7152;48.348;10.980;2022-12-18T06:11:49;40.03;;;18.93;;
14143;SDS011;7152;48.348;10.980;2022-12-18T06:14:16;47.07;;;22.07;;
14143;SDS011;7152;48.348;10.980;2022-12-18T06:16:42;38.77;;;19.53;;
14143;SDS011;7152;48.348;10.980;2022-12-18T06:19:12;40.10;;;19.67;;
14143;SDS011;7152;48.348;10.980;2022-12-18T06:21:39;41.27;;;19.60;;
14143;SDS011;7152;48.348;10.980;2022-12-18T06:24:05;38.63;;;19.33;;
14143;SDS011;7152;48.348;10.980;2022-12-18T06:26:31;38.03;;;18.13;;
14143;SDS011;7152;48.348;10.980;2022-12-18T06:28:57;41.00;;;20.37;;
14143;SDS011;7152;48.348;10.980;2022-12-18T06:31:22;42.43;;;19.33;;
14143;SDS011;7152;48.348;10.980;2022-12-18T06:33:48;40.13;;;19.93;;
14143;SDS011;7152;48.348;10.980;2022-12-18T06:36:14;37.10;;;17.73;;
14143;SDS011;7152;48.348;10.980;2022-12-18T06:38:40;36.30;;;18.87;;
14143;SDS011;7152;48.348;10.980;2022-12-18T06:41:08;45.53;;;20.50;;
14143;SDS011;7152;48.348;10.980;2022-12-18T06:43:34;43.00;;;19.67;;
14143;SDS011;7152;48.348;10.980;2022-12-18T06:46:01;40.57;;;18.73;;
14143;SDS011;7152;48.348;10.980;2022-12-18T06:48:28;41.10;;;19.57;;
14143;SDS011;7152;48.348;10.980;2022-12-18T06:50:54;43.13;;;20.13;;
14143;SDS011;7152;48.348;10.980;2022-12-18T06:53:20;43.37;;;20.00;;
14143;SDS011;7152;48.348;10.980;2022-12-18T06:55:46;34.77;;;17.77;;
14143;SDS011;7152;48.348;10.980;2022-12-18T06:58:11;43.50;;;20.07;;
14143;SDS011;7152;48.348;10.980;2022-12-18T07:00:37;39.43;;;18.53;;
14143;SDS011;7152;48.348;10.980;2022-12-18T07:03:03;39.03;;;18.93;;
14143;SDS011;7152;48.348;10.980;2022-12-18T07:05:29;34.90;;;17.23;;
14143;SDS011;7152;48.348;10.980;2022-12-18T07:07:54;36.57;;;17.23;;
14143;SDS011;7152;48.348;10.980;2022-12-18T07:10:20;36.17;;;17.40;;
14143;SDS011;7152;48.348;10.980;2022-12-18T07:12:46;33.80;;;17.57;;
14143;SDS011;7152;48.348;10.980;2022-12-18T07:15:12;33.73;;;15.80;;
14143;SDS011;7152;48.348;10.980;2022-12-18T07:17:37;40.60;;;18.33;;
14143;SDS011;7152;48.348;10.980;2022-12-18T07:20:03;35.97;;;17.70;;
14143;SDS011;7152;48.348;10.980;2022-12-18T07:22:29;37.27;;;18.87;;
14143;SDS011;7152;48.348;10.980;2022-12-18T07:24:55;38.07;;;19.10;;
14143;SDS011;7152;48.348;10.980;2022-12-18T07:27:21;38.50;;;18.07;;
14143;SDS011;7152;48.348;10.980;2022-12-18T07:29:47;31.47;;;16.93;;
14143;SDS011;7152;48.348;10.980;2022-12-18T07:32:13;34.13;;;17.17;;
14143;SDS011;7152;48.348;10.980;2022-12-18T07:34:38;37.60;;;17.90;;
14143;SDS011;7152;48.348;10.980;2022-12-18T07:37:04;33.07;;;16.60;;
14143;SDS011;7152;48.348;10.980;2022-12-18T07:39:30;37.63;;;16.80;;
14143;SDS011;7152;48.348;10.980;2022-12-18T07:41:55;33.60;;;16.57;;
14143;SDS011;7152;48.348;10.980;2022-12-18T07:44:39;34.43;;;17.47;;
14143;SDS011;7152;48.348;10.980;2022-12-18T07:47:05;37.93;;;17.43;;
14143;SDS011;7152;48.348;10.980;2022-12-18T07:49:31;35.57;;;17.60;;
14143;SDS011;7152;48.348;10.980;2022-12-18T07:51:56;30.77;;;15.90;;
14143;SDS011;7152;48.348;10.980;2022-12-18T07:54:23;30.00;;;15.70;;
14143;SDS011;7152;48.348;10.980;2022-12-18T07:56:50;33.23;;;15.73;;
14143;SDS011;7152;48.348;10.980;2022-12-18T07:59:16;33.87;;;17.47;;
14143;SDS011;7152;48.348;10.980;2022-12-18T08:01:42;38.17;;;17.13;;
14143;SDS011;7152;48.348;10.980;2022-12-18T08:04:08;35.13;;;18.73;;
14143;SDS011;7152;48.348;10.980;2022-12-18T08:06:33;33.80;;;16.77;;
14143;SDS011;7152;48.348;10.980;2022-12-18T08:08:59;37.80;;;19.17;;
14143;SDS011;7152;48.348;10.980;2022-12-18T08:11:25;34.63;;;17.47;;
14143;SDS011;7152;48.348;10.980;2022-12-18T08:13:52;36.03;;;18.53;;
14143;SDS011;7152;48.348;10.980;2022-12-18T08:16:18;37.53;;;18.23;;
14143;SDS011;7152;48.348;10.980;2022-12-18T08:18:44;38.07;;;19.40;;
14143;SDS011;7152;48.348;10.980;2022-12-18T08:23:37;38.17;;;20.13;;
14143;SDS011;7152;48.348;10.980;2022-12-18T08:26:03;40.20;;;19.60;;
14143;SDS011;7152;48.348;10.980;2022-12-18T08:28:28;37.47;;;18.57;;
14143;SDS011;7152;48.348;10.980;2022-12-18T08:30:54;30.53;;;16.77;;
14143;SDS011;7152;48.348;10.980;2022-12-18T08:33:20;33.87;;;17.80;;
14143;SDS011;7152;48.348;10.980;2022-12-18T08:35:45;37.03;;;19.27;;
14143;SDS011;7152;48.348;10.980;2022-12-18T08:38:11;34.43;;;17.63;;
14143;SDS011;7152;48.348;10.980;2022-12-18T08:40:36;39.10;;;20.40;;
14143;SDS011;7152;48.348;10.980;2022-12-18T08:43:02;39.67;;;22.93;;
14143;SDS011;7152;48.348;10.980;2022-12-18T08:45:46;31.50;;;16.97;;
14143;SDS011;7152;48.348;10.980;2022-12-18T08:48:12;30.70;;;16.97;;
14143;SDS011;7152;48.348;10.980;2022-12-18T08:50:37;36.37;;;19.43;;
14143;SDS011;7152;48.348;10.980;2022-12-18T08:53:03;37.33;;;18.40;;
14143;SDS011;7152;48.348;10.980;2022-12-18T08:55:29;34.47;;;17.87;;
14143;SDS011;7152;48.348;10.980;2022-12-18T08:57:54;36.33;;;19.47;;
14143;SDS011;7152;48.348;10.980;2022-12-18T09:00:20;34.43;;;18.70;;
14143;SDS011;7152;48.348;10.980;2022-12-18T09:02:46;34.67;;;18.60;;
14143;SDS011;7152;48.348;10.980;2022-12-18T09:05:12;34.77;;;17.70;;
14143;SDS011;7152;48.348;10.980;2022-12-18T09:07:37;40.23;;;20.73;;
14143;SDS011;7152;48.348;10.980;2022-12-18T09:10:03;41.67;;;22.77;;
14143;SDS011;7152;48.348;10.980;2022-12-18T09:12:29;36.70;;;19.70;;
14143;SDS011;7152;48.348;10.980;2022-12-18T09:14:55;34.50;;;19.50;;
14143;SDS011;7152;48.348;10.980;2022-12-18T09:17:21;38.97;;;19.80;;
14143;SDS011;7152;48.348;10.980;2022-12-18T09:19:47;39.47;;;21.27;;
14143;SDS011;7152;48.348;10.980;2022-12-18T09:22:12;36.27;;;19.87;;
14143;SDS011;7152;48.348;10.980;2022-12-18T09:24:38;37.40;;;21.17;;
14143;SDS011;7152;48.348;10.980;2022-12-18T09:27:04;38.83;;;20.10;;
14143;SDS011;7152;48.348;10.980;2022-12-18T09:29:29;37.73;;;21.67;;
14143;SDS011;7152;48.348;10.980;2022-12-18T09:31:55;41.67;;;22.90;;
14143;SDS011;7152;48.348;10.980;2022-12-18T09:34:21;38.27;;;21.23;;
14143;SDS011;7152;48.348;10.980;2022-12-18T09:36:47;32.67;;;18.57;;
14143;SDS011;7152;48.348;10.980;2022-12-18T09:39:13;38.80;;;21.43;;
14143;SDS011;7152;48.348;10.980;2022-12-18T09:41:40;35.77;;;19.90;;
14143;SDS011;7152;48.348;10.980;2022-12-18T09:44:11;34.80;;;19.60;;
14143;SDS011;7152;48.348;10.980;2022-12-18T09:47:05;27.27;;;16.83;;
14143;SDS011;7152;48.348;10.980;2022-12-18T09:49:38;28.70;;;16.97;;
14143;SDS011;7152;48.348;10.980;2022-12-18T09:52:21;37.33;;;18.60;;
14143;SDS011;7152;48.348;10.980;2022-12-18T09:54:53;33.77;;;18.30;;
14143;SDS011;7152;48.348;10.980;2022-12-18T09:57:51;31.53;;;17.60;;
14143;SDS011;7152;48.348;10.980;2022-12-18T10:00:21;35.53;;;20.90;;
14143;SDS011;7152;48.348;10.980;2022-12-18T10:02:48;30.77;;;18.20;;
14143;SDS011;7152;48.348;10.980;2022-12-18T10:05:17;33.23;;;18.63;;
14143;SDS011;7152;48.348;10.980;2022-12-18T10:07:58;34.17;;;18.37;;
14143;SDS011;7152;48.348;10.980;2022-12-18T10:13:22;38.47;;;19.90;;
14143;SDS011;7152;48.348;10.980;2022-12-18T10:16:07;36.07;;;18.23;;
14143;SDS011;7152;48.348;10.980;2022-12-18T10:21:51;31.40;;;17.60;;
14143;SDS011;7152;48.348;10.980;2022-12-18T10:24:44;29.57;;;16.53;;
14143;SDS011;7152;48.348;10.980;2022-12-18T10:27:26;33.33;;;17.70;;
14143;SDS011;7152;48.348;10.980;2022-12-18T10:29:52;33.33;;;18.60;;
14143;SDS011;7152;48.348;10.980;2022-12-18T10:32:21;34.57;;;18.27;;
14143;SDS011;7152;48.348;10.980;2022-12-18T10:34:49;35.17;;;19.40;;
14143;SDS011;7152;48.348;10.980;2022-12-18T10:37:20;31.93;;;18.33;;
14143;SDS011;7152;48.348;10.980;2022-12-18T10:42:39;33.10;;;18.30;;
14143;SDS011;7152;48.348;10.980;2022-12-18T10:45:10;34.73;;;19.37;;
14143;SDS011;7152;48.348;10.980;2022-12-18T10:47:45;32.17;;;17.83;;
14143;SDS011;7152;48.348;10.980;2022-12-18T12:19:06;34.53;;;18.93;;
14143;SDS011;7152;48.348;10.980;2022-12-18T12:30:04;36.13;;;22.03;;
14143;SDS011;7152;48.348;10.980;2022-12-18T12:40:05;31.40;;;19.73;;
14143;SDS011;7152;48.348;10.980;2022-12-18T12:42:32;32.90;;;18.93;;
14143;SDS011;7152;48.348;10.980;2022-12-18T12:46:08;30.47;;;17.80;;
14143;SDS011;7152;48.348;10.980;2022-12-18T12:48:32;31.33;;;18.37;;
14143;SDS011;7152;48.348;10.980;2022-12-18T12:51:12;30.80;;;18.63;;
14143;SDS011;7152;48.348;10.980;2022-12-18T12:53:43;32.70;;;18.07;;
14143;SDS011;7152;48.348;10.980;2022-12-18T12:56:11;30.77;;;17.70;;
14143;SDS011;7152;48.348;10.980;2022-12-18T13:01:51;34.30;;;18.77;;
14143;SDS011;7152;48.348;10.980;2022-12-18T13:04:47;32.30;;;19.77;;
14143;SDS011;7152;48.348;10.980;2022-12-18T13:07:35;31.80;;;18.97;;
14143;SDS011;7152;48.348;10.980;2022-12-18T13:10:11;28.63;;;17.23;;
14143;SDS011;7152;48.348;10.980;2022-12-18T13:12:52;30.20;;;17.70;;
14143;SDS011;7152;48.348;10.980;2022-12-18T13:15:23;32.07;;;18.57;;
14143;SDS011;7152;48.348;10.980;2022-12-18T13:18:04;30.30;;;18.77;;
14143;SDS011;7152;48.348;10.980;2022-12-18T13:20:34;32.10;;;18.70;;
14143;SDS011;7152;48.348;10.980;2022-12-18T13:28:49;30.30;;;16.77;;
14143;SDS011;7152;48.348;10.980;2022-12-18T13:31:07;32.47;;;17.43;;
14143;SDS011;7152;48.348;10.980;2022-12-18T13:33:40;29.80;;;18.20;;
14143;SDS011;7152;48.348;10.980;2022-12-18T13:36:25;32.03;;;17.63;;
14143;SDS011;7152;48.348;10.980;2022-12-18T13:39:20;32.57;;;17.13;;
14143;SDS011;7152;48.348;10.980;2022-12-18T13:41:50;37.43;;;17.30;;
14143;SDS011;7152;48.348;10.980;2022-12-18T13:44:59;35.87;;;17.67;;
14143;SDS011;7152;48.348;10.980;2022-12-18T13:47:32;31.57;;;17.70;;
14143;SDS011;7152;48.348;10.980;2022-12-18T13:49:59;35.07;;;18.87;;
14143;SDS011;7152;48.348;10.980;2022-12-18T13:52:28;34.40;;;17.17;;
14143;SDS011;7152;48.348;10.980;2022-12-18T13:54:58;31.57;;;16.93;;
14143;SDS011;7152;48.348;10.980;2022-12-18T14:00:16;35.50;;;20.37;;
14143;SDS011;7152;48.348;10.980;2022-12-18T14:02:45;39.17;;;19.43;;
14143;SDS011;7152;48.348;10.980;2022-12-18T14:05:30;33.20;;;17.13;;
14143;SDS011;7152;48.348;10.980;2022-12-18T14:08:05;33.13;;;18.50;;
14143;SDS011;7152;48.348;10.980;2022-12-18T14:10:42;37.40;;;19.20;;
14143;SDS011;7152;48.348;10.980;2022-12-18T14:13:11;31.80;;;17.47;;
14143;SDS011;7152;48.348;10.980;2022-12-18T14:15:45;36.03;;;18.40;;
14143;SDS011;7152;48.348;10.980;2022-12-18T14:20:50;30.80;;;16.97;;
14143;SDS011;7152;48.348;10.980;2022-12-18T14:23:34;36.00;;;18.93;;
14143;SDS011;7152;48.348;10.980;2022-12-18T14:26:03;31.60;;;17.93;;
14143;SDS011;7152;48.348;10.980;2022-12-18T14:28:57;29.93;;;16.90;;
14143;SDS011;7152;48.348;10.980;2022-12-18T14:31:26;33.50;;;17.23;;
14143;SDS011;7152;48.348;10.980;2022-12-18T14:33:54;28.53;;;16.17;;
14143;SDS011;7152;48.348;10.980;2022-12-18T14:36:21;34.63;;;18.17;;
14143;SDS011;7152;48.348;10.980;2022-12-18T14:38:55;34.20;;;17.33;;
14143;SDS011;7152;48.348;10.980;2022-12-18T14:41:23;30.33;;;16.57;;
14143;SDS011;7152;48.348;10.980;2022-12-18T14:43:50;29.83;;;15.30;;
14143;SDS011;7152;48.348;10.980;2022-12-18T14:49:04;29.07;;;14.43;;
14143;SDS011;7152;48.348;10.980;2022-12-18T14:51:55;32.07;;;15.50;;
14143;SDS011;7152;48.348;10.980;2022-12-18T14:54:25;27.80;;;15.47;;
14143;SDS011;7152;48.348;10.980;2022-12-18T14:57:54;28.57;;;15.93;;
14143;SDS011;7152;48.348;10.980;2022-12-18T14:59:51;30.90;;;16.40;;
14143;SDS011;7152;48.348;10.980;2022-12-18T15:04:53;30.07;;;16.77;;
14143;SDS011;7152;48.348;10.980;2022-12-18T15:07:34;34.00;;;17.93;;
14143;SDS011;7152;48.348;10.980;2022-12-18T15:12:44;34.57;;;17.83;;
14143;SDS011;7152;48.348;10.980;2022-12-18T15:18:01;36.57;;;17.13;;
14143;SDS011;7152;48.348;10.980;2022-12-18T15:23:12;35.50;;;16.67;;
14143;SDS011;7152;48.348;10.980;2022-12-18T15:25:40;29.57;;;15.40;;
14143;SDS011;7152;48.348;10.980;2022-12-18T15:33:37;28.10;;;15.47;;
14143;SDS011;7152;48.348;10.980;2022-12-18T15:36:07;28.93;;;15.63;;
14143;SDS011;7152;48.348;10.980;2022-12-18T15:38:34;36.13;;;16.20;;
14143;SDS011;7152;48.348;10.980;2022-12-18T15:41:00;33.63;;;16.83;;
14143;SDS011;7152;48.348;10.980;2022-12-18T15:43:26;28.80;;;16.40;;
14143;SDS011;7152;48.348;10.980;2022-12-18T15:46:05;28.87;;;15.43;;
14143;SDS011;7152;48.348;10.980;2022-12-18T15:48:35;30.43;;;17.63;;
14143;SDS011;7152;48.348;10.980;2022-12-18T15:51:08;33.87;;;17.03;;
14143;SDS011;7152;48.348;10.980;2022-12-18T15:53:40;31.63;;;16.03;;
14143;SDS011;7152;48.348;10.980;2022-12-18T15:56:09;35.43;;;17.53;;
14143;SDS011;7152;48.348;10.980;2022-12-18T15:58:54;31.10;;;16.63;;
14143;SDS011;7152;48.348;10.980;2022-12-18T16:01:21;32.47;;;16.40;;
14143;SDS011;7152;48.348;10.980;2022-12-18T16:03:48;32.50;;;18.53;;
14143;SDS011;7152;48.348;10.980;2022-12-18T16:06:14;29.93;;;16.47;;
14143;SDS011;7152;48.348;10.980;2022-12-18T16:08:40;32.10;;;18.10;;
14143;SDS011;7152;48.348;10.980;2022-12-18T16:11:05;37.00;;;18.83;;
14143;SDS011;7152;48.348;10.980;2022-12-18T16:13:45;32.77;;;18.50;;
14143;SDS011;7152;48.348;10.980;2022-12-18T16:16:10;31.63;;;17.67;;
14143;SDS011;7152;48.348;10.980;2022-12-18T16:18:36;33.57;;;19.20;;
14143;SDS011;7152;48.348;10.980;2022-12-18T16:21:01;33.63;;;18.83;;
14143;SDS011;7152;48.348;10.980;2022-12-18T16:23:28;34.43;;;18.80;;
14143;SDS011;7152;48.348;10.980;2022-12-18T16:25:53;34.77;;;17.97;;
14143;SDS011;7152;48.348;10.980;2022-12-18T16:28:19;34.33;;;17.80;;
14143;SDS011;7152;48.348;10.980;2022-12-18T16:30:45;29.70;;;17.40;;
14143;SDS011;7152;48.348;10.980;2022-12-18T16:33:11;31.60;;;17.50;;
14143;SDS011;7152;48.348;10.980;2022-12-18T16:35:36;29.97;;;16.67;;
14143;SDS011;7152;48.348;10.980;2022-12-18T16:38:02;29.43;;;18.10;;
14143;SDS011;7152;48.348;10.980;2022-12-18T16:40:28;30.93;;;18.07;;
14143;SDS011;7152;48.348;10.980;2022-12-18T16:42:56;34.53;;;17.43;;
14143;SDS011;7152;48.348;10.980;2022-12-18T16:45:22;34.33;;;17.80;;
14143;SDS011;7152;48.348;10.980;2022-12-18T16:47:48;33.67;;;18.73;;
14143;SDS011;7152;48.348;10.980;2022-12-18T16:50:14;33.47;;;18.43;;
14143;SDS011;7152;48.348;10.980;2022-12-18T16:52:39;36.47;;;17.53;;
14143;SDS011;7152;48.348;10.980;2022-12-18T16:55:05;35.83;;;18.30;;
14143;SDS011;7152;48.348;10.980;2022-12-18T16:57:32;35.03;;;18.53;;
14143;SDS011;7152;48.348;10.980;2022-12-18T16:59:58;35.93;;;18.70;;
14143;SDS011;7152;48.348;10.980;2022-12-18T17:02:24;36.10;;;18.57;;
14143;SDS011;7152;48.348;10.980;2022-12-18T17:04:54;34.70;;;19.83;;
14143;SDS011;7152;48.348;10.980;2022-12-18T17:07:21;35.67;;;17.47;;
14143;SDS011;7152;48.348;10.980;2022-12-18T17:09:47;32.80;;;17.17;;
14143;SDS011;7152;48.348;10.980;2022-12-18T17:12:14;39.20;;;18.73;;
14143;SDS011;7152;48.348;10.980;2022-12-18T17:14:40;36.53;;;19.23;;
14143;SDS011;7152;48.348;10.980;2022-12-18T17:17:05;39.27;;;18.67;;
14143;SDS011;7152;48.348;10.980;2022-12-18T17:19:31;34.13;;;18.53;;
14143;SDS011;7152;48.348;10.980;2022-12-18T17:21:57;34.87;;;18.47;;
14143;SDS011;7152;48.348;10.980;2022-12-18T17:24:23;37.23;;;19.60;;
14143;SDS011;7152;48.348;10.980;2022-12-18T17:26:49;38.07;;;20.30;;
14143;SDS011;7152;48.348;10.980;2022-12-18T17:29:17;37.90;;;18.63;;
14143;SDS011;7152;48.348;10.980;2022-12-18T17:31:44;34.80;;;17.87;;
14143;SDS011;7152;48.348;10.980;2022-12-18T17:34:10;34.63;;;19.30;;
14143;SDS011;7152;48.348;10.980;2022-12-18T17:36:36;34.73;;;18.40;;